Skip Navigation LinksHome page > Weather > Current weather Skip Navigation Links

Current Weather

Heathrow, London

For information only: do not use for flight planning or navigation.
Latest weather
Observation time Monday, October 20, 2014 8:50 AM BST
Local time Monday, October 20, 2014 9:03 AM BST
Flight conditions Visual Meteorological Conditions
Winds
Wind direction West-Southwest (240°)
Wind speed 9 mph
Visibility 6.2 mi.
Sky condition
Ceiling unlimited
Cloud layer few clouds 1,700 ft.
Temperature 55°F
Dewpoint 52°F
Altimeter 30.03 in.Hg
Derived measurements
Relative humidity 88%
Density altitude -180 ft.
Remarks
Corrected report.
No significant changes expected in the next two hours.
METAR COR EGLL 200750Z 24008KT 9999 FEW017 13/11 Q1017 NOSIG

Settings

Location code

InnerDrive.Weather 4.0.5399.0 Release CLR 4.0.30319.34014
Copyright ©2014 Inner Drive Technology. All rights reserved. Portions Copyright ©1986-2014 David Braverman.

Find weather

Site navigation


Skip Navigation Links

Place info

Page info

PayPal - The safer, easier way to pay online!

Return home.

Copyright ©2014 Inner Drive Technology. Purveyors of fine, hand-crafted computer software. Page printed 2014-10-20T08:03:20 UTC.